sensor_id;sensor_type;location;lat;lon;timestamp;pressure;altitude;pressure_sealevel;temperature;humidity
5356;BME280;70449;52.486;13.386;2024-02-23T00:02:21;65098.22;;;-146.22;100.00
5356;BME280;70449;52.486;13.386;2024-02-23T00:04:50;65098.22;;;-146.22;100.00
5356;BME280;70449;52.486;13.386;2024-02-23T00:07:17;65098.22;;;-146.22;100.00
5356;BME280;70449;52.486;13.386;2024-02-23T00:09:44;65098.22;;;-146.22;100.00
5356;BME280;70449;52.486;13.386;2024-02-23T00:12:11;65098.22;;;-146.22;100.00
5356;BME280;70449;52.486;13.386;2024-02-23T00:14:39;65098.22;;;-146.22;100.00
5356;BME280;70449;52.486;13.386;2024-02-23T00:17:06;65098.22;;;-146.22;100.00
5356;BME280;70449;52.486;13.386;2024-02-23T00:19:34;65098.22;;;-146.22;100.00
5356;BME280;70449;52.486;13.386;2024-02-23T00:22:03;65098.22;;;-146.22;100.00
5356;BME280;70449;52.486;13.386;2024-02-23T00:24:30;65098.22;;;-146.22;100.00
5356;BME280;70449;52.486;13.386;2024-02-23T00:26:57;65098.22;;;-146.22;100.00
5356;BME280;70449;52.486;13.386;2024-02-23T00:29:25;65098.22;;;-146.22;100.00
5356;BME280;70449;52.486;13.386;2024-02-23T00:31:52;65098.22;;;-146.22;100.00
5356;BME280;70449;52.486;13.386;2024-02-23T00:34:18;65098.22;;;-146.22;100.00
5356;BME280;70449;52.486;13.386;2024-02-23T00:36:45;65098.22;;;-146.22;100.00
5356;BME280;70449;52.486;13.386;2024-02-23T00:39:14;65098.22;;;-146.22;100.00
5356;BME280;70449;52.486;13.386;2024-02-23T00:41:42;65098.22;;;-146.22;100.00
5356;BME280;70449;52.486;13.386;2024-02-23T00:44:09;65098.22;;;-146.22;100.00
5356;BME280;70449;52.486;13.386;2024-02-23T00:46:36;65098.22;;;-146.22;100.00
5356;BME280;70449;52.486;13.386;2024-02-23T00:49:03;65098.22;;;-146.22;100.00
5356;BME280;70449;52.486;13.386;2024-02-23T00:51:30;65098.22;;;-146.22;100.00
5356;BME280;70449;52.486;13.386;2024-02-23T00:53:57;65098.22;;;-146.22;100.00
5356;BME280;70449;52.486;13.386;2024-02-23T00:56:26;65098.22;;;-146.22;100.00
5356;BME280;70449;52.486;13.386;2024-02-23T00:58:53;65098.22;;;-146.22;100.00
5356;BME280;70449;52.486;13.386;2024-02-23T01:01:20;65098.22;;;-146.22;100.00
5356;BME280;70449;52.486;13.386;2024-02-23T01:03:48;65098.22;;;-146.22;100.00
5356;BME280;70449;52.486;13.386;2024-02-23T01:06:15;65098.22;;;-146.22;100.00
5356;BME280;70449;52.486;13.386;2024-02-23T01:08:42;65098.22;;;-146.22;100.00
5356;BME280;70449;52.486;13.386;2024-02-23T01:11:09;65098.22;;;-146.22;100.00
5356;BME280;70449;52.486;13.386;2024-02-23T01:13:38;65098.22;;;-146.22;100.00
5356;BME280;70449;52.486;13.386;2024-02-23T01:16:05;65098.22;;;-146.22;100.00
5356;BME280;70449;52.486;13.386;2024-02-23T01:18:34;65098.22;;;-146.22;100.00
5356;BME280;70449;52.486;13.386;2024-02-23T01:21:01;65098.22;;;-146.22;100.00
5356;BME280;70449;52.486;13.386;2024-02-23T01:23:28;65098.22;;;-146.22;100.00
5356;BME280;70449;52.486;13.386;2024-02-23T01:25:56;65098.22;;;-146.22;100.00
5356;BME280;70449;52.486;13.386;2024-02-23T01:28:24;65098.22;;;-146.22;100.00
5356;BME280;70449;52.486;13.386;2024-02-23T01:30:53;65098.22;;;-146.22;100.00
5356;BME280;70449;52.486;13.386;2024-02-23T01:33:20;65098.22;;;-146.22;100.00
5356;BME280;70449;52.486;13.386;2024-02-23T01:35:47;65098.22;;;-146.22;100.00
5356;BME280;70449;52.486;13.386;2024-02-23T01:38:14;65098.22;;;-146.22;100.00
5356;BME280;70449;52.486;13.386;2024-02-23T01:40:44;65098.22;;;-146.22;100.00
5356;BME280;70449;52.486;13.386;2024-02-23T01:43:12;65098.22;;;-146.22;100.00
5356;BME280;70449;52.486;13.386;2024-02-23T01:45:39;65098.22;;;-146.22;100.00
5356;BME280;70449;52.486;13.386;2024-02-23T01:48:08;65098.22;;;-146.22;100.00
5356;BME280;70449;52.486;13.386;2024-02-23T01:50:36;65098.22;;;-146.22;100.00
5356;BME280;70449;52.486;13.386;2024-02-23T01:53:04;65098.22;;;-146.22;100.00
5356;BME280;70449;52.486;13.386;2024-02-23T01:55:32;65098.22;;;-146.22;100.00
5356;BME280;70449;52.486;13.386;2024-02-23T01:58:00;65098.22;;;-146.22;100.00
5356;BME280;70449;52.486;13.386;2024-02-23T02:00:29;65098.22;;;-146.22;100.00
5356;BME280;70449;52.486;13.386;2024-02-23T02:02:57;65098.22;;;-146.22;100.00
5356;BME280;70449;52.486;13.386;2024-02-23T02:05:25;65098.22;;;-146.22;100.00
5356;BME280;70449;52.486;13.386;2024-02-23T02:07:56;65098.22;;;-146.22;100.00
5356;BME280;70449;52.486;13.386;2024-02-23T02:10:25;65098.22;;;-146.22;100.00
5356;BME280;70449;52.486;13.386;2024-02-23T02:12:52;65098.22;;;-146.22;100.00
5356;BME280;70449;52.486;13.386;2024-02-23T02:15:20;65098.22;;;-146.22;100.00
5356;BME280;70449;52.486;13.386;2024-02-23T02:17:48;65098.22;;;-146.22;100.00
5356;BME280;70449;52.486;13.386;2024-02-23T02:20:18;65098.22;;;-146.22;100.00
5356;BME280;70449;52.486;13.386;2024-02-23T02:22:52;65098.22;;;-146.22;100.00
5356;BME280;70449;52.486;13.386;2024-02-23T02:25:19;65098.22;;;-146.22;100.00
5356;BME280;70449;52.486;13.386;2024-02-23T02:27:46;65098.22;;;-146.22;100.00
5356;BME280;70449;52.486;13.386;2024-02-23T02:30:14;65098.22;;;-146.22;100.00
5356;BME280;70449;52.486;13.386;2024-02-23T02:32:41;65098.22;;;-146.22;100.00
5356;BME280;70449;52.486;13.386;2024-02-23T02:35:11;65098.22;;;-146.22;100.00
5356;BME280;70449;52.486;13.386;2024-02-23T02:37:38;65098.22;;;-146.22;100.00
5356;BME280;70449;52.486;13.386;2024-02-23T02:40:08;65098.22;;;-146.22;100.00
5356;BME280;70449;52.486;13.386;2024-02-23T02:42:36;65098.22;;;-146.22;100.00
5356;BME280;70449;52.486;13.386;2024-02-23T02:45:04;65098.22;;;-146.22;100.00
5356;BME280;70449;52.486;13.386;2024-02-23T02:47:31;65098.22;;;-146.22;100.00
5356;BME280;70449;52.486;13.386;2024-02-23T02:49:58;65098.22;;;-146.22;100.00
5356;BME280;70449;52.486;13.386;2024-02-23T02:52:33;65098.22;;;-146.22;100.00
5356;BME280;70449;52.486;13.386;2024-02-23T02:55:00;65098.22;;;-146.22;100.00
5356;BME280;70449;52.486;13.386;2024-02-23T02:57:29;65098.22;;;-146.22;100.00
5356;BME280;70449;52.486;13.386;2024-02-23T02:59:56;65098.22;;;-146.22;100.00
5356;BME280;70449;52.486;13.386;2024-02-23T03:02:23;65098.22;;;-146.22;100.00
5356;BME280;70449;52.486;13.386;2024-02-23T03:04:51;65098.22;;;-146.22;100.00
5356;BME280;70449;52.486;13.386;2024-02-23T03:07:20;65098.22;;;-146.22;100.00
5356;BME280;70449;52.486;13.386;2024-02-23T03:09:47;65098.22;;;-146.22;100.00
5356;BME280;70449;52.486;13.386;2024-02-23T03:12:15;65098.22;;;-146.22;100.00
5356;BME280;70449;52.486;13.386;2024-02-23T03:14:44;65098.22;;;-146.22;100.00
5356;BME280;70449;52.486;13.386;2024-02-23T03:17:12;65098.22;;;-146.22;100.00
5356;BME280;70449;52.486;13.386;2024-02-23T03:19:39;65098.22;;;-146.22;100.00
5356;BME280;70449;52.486;13.386;2024-02-23T03:22:06;65098.22;;;-146.22;100.00
5356;BME280;70449;52.486;13.386;2024-02-23T03:24:33;65098.22;;;-146.22;100.00
5356;BME280;70449;52.486;13.386;2024-02-23T03:27:00;65098.22;;;-146.22;100.00
5356;BME280;70449;52.486;13.386;2024-02-23T03:29:28;65098.22;;;-146.22;100.00
5356;BME280;70449;52.486;13.386;2024-02-23T03:31:56;65098.22;;;-146.22;100.00
5356;BME280;70449;52.486;13.386;2024-02-23T03:34:23;65098.22;;;-146.22;100.00
5356;BME280;70449;52.486;13.386;2024-02-23T03:36:51;65098.22;;;-146.22;100.00
5356;BME280;70449;52.486;13.386;2024-02-23T03:39:18;65098.22;;;-146.22;100.00
5356;BME280;70449;52.486;13.386;2024-02-23T03:41:45;65098.22;;;-146.22;100.00
5356;BME280;70449;52.486;13.386;2024-02-23T03:44:12;65098.22;;;-146.22;100.00
5356;BME280;70449;52.486;13.386;2024-02-23T03:46:39;65098.22;;;-146.22;100.00
5356;BME280;70449;52.486;13.386;2024-02-23T03:49:08;65098.22;;;-146.22;100.00
5356;BME280;70449;52.486;13.386;2024-02-23T03:51:36;65098.22;;;-146.22;100.00
5356;BME280;70449;52.486;13.386;2024-02-23T03:54:05;65098.22;;;-146.22;100.00
5356;BME280;70449;52.486;13.386;2024-02-23T03:56:38;65098.22;;;-146.22;100.00
5356;BME280;70449;52.486;13.386;2024-02-23T03:59:06;65098.22;;;-146.22;100.00
5356;BME280;70449;52.486;13.386;2024-02-23T04:01:36;65098.22;;;-146.22;100.00
5356;BME280;70449;52.486;13.386;2024-02-23T04:04:04;65098.22;;;-146.22;100.00
5356;BME280;70449;52.486;13.386;2024-02-23T04:06:33;65098.22;;;-146.22;100.00
5356;BME280;70449;52.486;13.386;2024-02-23T04:09:00;65098.22;;;-146.22;100.00
5356;BME280;70449;52.486;13.386;2024-02-23T04:11:30;65098.22;;;-146.22;100.00
5356;BME280;70449;52.486;13.386;2024-02-23T04:13:58;65098.22;;;-146.22;100.00
5356;BME280;70449;52.486;13.386;2024-02-23T04:16:26;65098.22;;;-146.22;100.00
5356;BME280;70449;52.486;13.386;2024-02-23T04:18:54;65098.22;;;-146.22;100.00
5356;BME280;70449;52.486;13.386;2024-02-23T04:21:22;65098.22;;;-146.22;100.00
5356;BME280;70449;52.486;13.386;2024-02-23T04:23:50;65098.22;;;-146.22;100.00
5356;BME280;70449;52.486;13.386;2024-02-23T04:26:18;65098.22;;;-146.22;100.00
5356;BME280;70449;52.486;13.386;2024-02-23T04:28:45;65098.22;;;-146.22;100.00
5356;BME280;70449;52.486;13.386;2024-02-23T04:31:12;65098.22;;;-146.22;100.00
5356;BME280;70449;52.486;13.386;2024-02-23T04:33:39;65098.22;;;-146.22;100.00
5356;BME280;70449;52.486;13.386;2024-02-23T04:36:07;65098.22;;;-146.22;100.00
5356;BME280;70449;52.486;13.386;2024-02-23T04:38:34;65098.22;;;-146.22;100.00
5356;BME280;70449;52.486;13.386;2024-02-23T04:41:04;65098.22;;;-146.22;100.00
5356;BME280;70449;52.486;13.386;2024-02-23T04:43:31;65098.22;;;-146.22;100.00
5356;BME280;70449;52.486;13.386;2024-02-23T04:45:59;65098.22;;;-146.22;100.00
5356;BME280;70449;52.486;13.386;2024-02-23T04:48:26;65098.22;;;-146.22;100.00
5356;BME280;70449;52.486;13.386;2024-02-23T04:50:53;65098.22;;;-146.22;100.00
5356;BME280;70449;52.486;13.386;2024-02-23T04:53:20;65098.22;;;-146.22;100.00
5356;BME280;70449;52.486;13.386;2024-02-23T04:55:48;65098.22;;;-146.22;100.00
5356;BME280;70449;52.486;13.386;2024-02-23T04:58:16;65098.22;;;-146.22;100.00
5356;BME280;70449;52.486;13.386;2024-02-23T05:00:43;65098.22;;;-146.22;100.00
5356;BME280;70449;52.486;13.386;2024-02-23T05:03:11;65098.22;;;-146.22;100.00
5356;BME280;70449;52.486;13.386;2024-02-23T05:05:38;65098.22;;;-146.22;100.00
5356;BME280;70449;52.486;13.386;2024-02-23T05:08:06;65098.22;;;-146.22;100.00
5356;BME280;70449;52.486;13.386;2024-02-23T05:10:33;65098.22;;;-146.22;100.00
5356;BME280;70449;52.486;13.386;2024-02-23T05:13:00;65098.22;;;-146.22;100.00
5356;BME280;70449;52.486;13.386;2024-02-23T05:15:29;65098.22;;;-146.22;100.00
5356;BME280;70449;52.486;13.386;2024-02-23T05:17:56;65098.22;;;-146.22;100.00
5356;BME280;70449;52.486;13.386;2024-02-23T05:20:23;65098.22;;;-146.22;100.00
5356;BME280;70449;52.486;13.386;2024-02-23T05:22:50;65098.22;;;-146.22;100.00
5356;BME280;70449;52.486;13.386;2024-02-23T05:25:17;65098.22;;;-146.22;100.00
5356;BME280;70449;52.486;13.386;2024-02-23T05:27:44;65098.22;;;-146.22;100.00
5356;BME280;70449;52.486;13.386;2024-02-23T05:30:13;65098.22;;;-146.22;100.00
5356;BME280;70449;52.486;13.386;2024-02-23T05:32:41;65098.22;;;-146.22;100.00
5356;BME280;70449;52.486;13.386;2024-02-23T05:35:08;65098.22;;;-146.22;100.00
5356;BME280;70449;52.486;13.386;2024-02-23T05:37:36;65098.22;;;-146.22;100.00
5356;BME280;70449;52.486;13.386;2024-02-23T05:40:05;65098.22;;;-146.22;100.00
5356;BME280;70449;52.486;13.386;2024-02-23T05:42:36;65098.22;;;-146.22;100.00
5356;BME280;70449;52.486;13.386;2024-02-23T05:45:05;65098.22;;;-146.22;100.00
5356;BME280;70449;52.486;13.386;2024-02-23T05:47:35;65098.22;;;-146.22;100.00
5356;BME280;70449;52.486;13.386;2024-02-23T05:50:05;65098.22;;;-146.22;100.00
5356;BME280;70449;52.486;13.386;2024-02-23T05:52:33;65098.22;;;-146.22;100.00
5356;BME280;70449;52.486;13.386;2024-02-23T05:55:00;65098.22;;;-146.22;100.00
5356;BME280;70449;52.486;13.386;2024-02-23T05:57:28;65098.22;;;-146.22;100.00
5356;BME280;70449;52.486;13.386;2024-02-23T05:59:55;65098.22;;;-146.22;100.00
5356;BME280;70449;52.486;13.386;2024-02-23T06:02:23;65098.22;;;-146.22;100.00
5356;BME280;70449;52.486;13.386;2024-02-23T06:04:50;65098.22;;;-146.22;100.00
5356;BME280;70449;52.486;13.386;2024-02-23T06:07:19;65098.22;;;-146.22;100.00
5356;BME280;70449;52.486;13.386;2024-02-23T06:09:52;65098.22;;;-146.22;100.00
5356;BME280;70449;52.486;13.386;2024-02-23T06:12:20;65098.22;;;-146.22;100.00
5356;BME280;70449;52.486;13.386;2024-02-23T06:14:47;65098.22;;;-146.22;100.00
5356;BME280;70449;52.486;13.386;2024-02-23T06:17:14;65098.22;;;-146.22;100.00
5356;BME280;70449;52.486;13.386;2024-02-23T06:19:40;65098.22;;;-146.22;100.00
5356;BME280;70449;52.486;13.386;2024-02-23T06:22:08;65098.22;;;-146.22;100.00
5356;BME280;70449;52.486;13.386;2024-02-23T06:24:37;65098.22;;;-146.22;100.00
5356;BME280;70449;52.486;13.386;2024-02-23T06:27:04;65098.22;;;-146.22;100.00
5356;BME280;70449;52.486;13.386;2024-02-23T06:29:31;65098.22;;;-146.22;100.00
5356;BME280;70449;52.486;13.386;2024-02-23T06:31:59;65098.22;;;-146.22;100.00
5356;BME280;70449;52.486;13.386;2024-02-23T06:34:28;65098.22;;;-146.22;100.00
5356;BME280;70449;52.486;13.386;2024-02-23T06:36:55;65098.22;;;-146.22;100.00
5356;BME280;70449;52.486;13.386;2024-02-23T06:39:23;65098.22;;;-146.22;100.00
5356;BME280;70449;52.486;13.386;2024-02-23T06:41:51;65098.22;;;-146.22;100.00
5356;BME280;70449;52.486;13.386;2024-02-23T06:44:19;65098.22;;;-146.22;100.00
5356;BME280;70449;52.486;13.386;2024-02-23T06:46:46;65098.22;;;-146.22;100.00
5356;BME280;70449;52.486;13.386;2024-02-23T06:49:13;65098.22;;;-146.22;100.00
5356;BME280;70449;52.486;13.386;2024-02-23T06:51:41;65098.22;;;-146.22;100.00
5356;BME280;70449;52.486;13.386;2024-02-23T06:54:08;65098.22;;;-146.22;100.00
5356;BME280;70449;52.486;13.386;2024-02-23T06:56:35;65098.22;;;-146.22;100.00
5356;BME280;70449;52.486;13.386;2024-02-23T06:59:04;65098.22;;;-146.22;100.00
5356;BME280;70449;52.486;13.386;2024-02-23T07:01:34;65098.22;;;-146.22;100.00
5356;BME280;70449;52.486;13.386;2024-02-23T07:04:05;65098.22;;;-146.22;100.00
5356;BME280;70449;52.486;13.386;2024-02-23T07:06:32;65098.22;;;-146.22;100.00
5356;BME280;70449;52.486;13.386;2024-02-23T07:09:01;65098.22;;;-146.22;100.00
5356;BME280;70449;52.486;13.386;2024-02-23T07:11:29;65098.22;;;-146.22;100.00
5356;BME280;70449;52.486;13.386;2024-02-23T07:13:56;65098.22;;;-146.22;100.00
5356;BME280;70449;52.486;13.386;2024-02-23T07:16:25;65098.22;;;-146.22;100.00
5356;BME280;70449;52.486;13.386;2024-02-23T07:18:52;65098.22;;;-146.22;100.00
5356;BME280;70449;52.486;13.386;2024-02-23T07:21:20;65098.22;;;-146.22;100.00
5356;BME280;70449;52.486;13.386;2024-02-23T07:23:55;65098.22;;;-146.22;100.00
5356;BME280;70449;52.486;13.386;2024-02-23T07:26:22;65098.22;;;-146.22;100.00
5356;BME280;70449;52.486;13.386;2024-02-23T07:28:49;65098.22;;;-146.22;100.00
5356;BME280;70449;52.486;13.386;2024-02-23T07:31:17;65098.22;;;-146.22;100.00
5356;BME280;70449;52.486;13.386;2024-02-23T07:33:48;65098.22;;;-146.22;100.00
5356;BME280;70449;52.486;13.386;2024-02-23T07:36:17;65098.22;;;-146.22;100.00
5356;BME280;70449;52.486;13.386;2024-02-23T07:38:45;65098.22;;;-146.22;100.00
5356;BME280;70449;52.486;13.386;2024-02-23T07:41:12;65098.22;;;-146.22;100.00
5356;BME280;70449;52.486;13.386;2024-02-23T07:43:41;65098.22;;;-146.22;100.00
5356;BME280;70449;52.486;13.386;2024-02-23T07:46:08;65098.22;;;-146.22;100.00
5356;BME280;70449;52.486;13.386;2024-02-23T07:48:36;65098.22;;;-146.22;100.00
5356;BME280;70449;52.486;13.386;2024-02-23T07:51:09;65098.22;;;-146.22;100.00
5356;BME280;70449;52.486;13.386;2024-02-23T07:53:36;65098.22;;;-146.22;100.00
5356;BME280;70449;52.486;13.386;2024-02-23T07:56:07;65098.22;;;-146.22;100.00
5356;BME280;70449;52.486;13.386;2024-02-23T07:58:34;65098.22;;;-146.22;100.00
5356;BME280;70449;52.486;13.386;2024-02-23T08:01:04;65098.22;;;-146.22;100.00
5356;BME280;70449;52.486;13.386;2024-02-23T08:03:36;65098.22;;;-146.22;100.00
5356;BME280;70449;52.486;13.386;2024-02-23T08:06:03;65098.22;;;-146.22;100.00
5356;BME280;70449;52.486;13.386;2024-02-23T08:08:32;65098.22;;;-146.22;100.00
5356;BME280;70449;52.486;13.386;2024-02-23T08:11:00;65098.22;;;-146.22;100.00
5356;BME280;70449;52.486;13.386;2024-02-23T08:13:28;65098.22;;;-146.22;100.00
5356;BME280;70449;52.486;13.386;2024-02-23T08:15:58;65098.22;;;-146.22;100.00
5356;BME280;70449;52.486;13.386;2024-02-23T08:18:25;65098.22;;;-146.22;100.00
5356;BME280;70449;52.486;13.386;2024-02-23T08:20:52;65098.22;;;-146.22;100.00
5356;BME280;70449;52.486;13.386;2024-02-23T08:23:20;65098.22;;;-146.22;100.00
5356;BME280;70449;52.486;13.386;2024-02-23T08:25:50;65098.22;;;-146.22;100.00
5356;BME280;70449;52.486;13.386;2024-02-23T08:28:19;65098.22;;;-146.22;100.00
5356;BME280;70449;52.486;13.386;2024-02-23T08:30:46;65098.22;;;-146.22;100.00
5356;BME280;70449;52.486;13.386;2024-02-23T08:33:14;65098.22;;;-146.22;100.00
5356;BME280;70449;52.486;13.386;2024-02-23T08:35:41;65098.22;;;-146.22;100.00
5356;BME280;70449;52.486;13.386;2024-02-23T08:38:08;65098.22;;;-146.22;100.00
5356;BME280;70449;52.486;13.386;2024-02-23T08:40:36;65098.22;;;-146.22;100.00
5356;BME280;70449;52.486;13.386;2024-02-23T08:43:04;65098.22;;;-146.22;100.00
5356;BME280;70449;52.486;13.386;2024-02-23T08:45:32;65098.22;;;-146.22;100.00
5356;BME280;70449;52.486;13.386;2024-02-23T08:47:59;65098.22;;;-146.22;100.00
5356;BME280;70449;52.486;13.386;2024-02-23T08:50:26;65098.22;;;-146.22;100.00
5356;BME280;70449;52.486;13.386;2024-02-23T08:52:53;65098.22;;;-146.22;100.00
5356;BME280;70449;52.486;13.386;2024-02-23T08:55:20;65098.22;;;-146.22;100.00
5356;BME280;70449;52.486;13.386;2024-02-23T08:57:48;65098.22;;;-146.22;100.00
5356;BME280;70449;52.486;13.386;2024-02-23T09:00:18;65098.22;;;-146.22;100.00
5356;BME280;70449;52.486;13.386;2024-02-23T09:02:45;65098.22;;;-146.22;100.00
5356;BME280;70449;52.486;13.386;2024-02-23T09:05:13;65098.22;;;-146.22;100.00
5356;BME280;70449;52.486;13.386;2024-02-23T09:07:40;65098.22;;;-146.22;100.00
5356;BME280;70449;52.486;13.386;2024-02-23T09:10:09;65098.22;;;-146.22;100.00
5356;BME280;70449;52.486;13.386;2024-02-23T09:12:36;65098.22;;;-146.22;100.00
5356;BME280;70449;52.486;13.386;2024-02-23T09:15:05;65098.22;;;-146.22;100.00
5356;BME280;70449;52.486;13.386;2024-02-23T09:17:35;65098.22;;;-146.22;100.00
5356;BME280;70449;52.486;13.386;2024-02-23T09:20:02;65098.22;;;-146.22;100.00
5356;BME280;70449;52.486;13.386;2024-02-23T09:22:29;65098.22;;;-146.22;100.00
5356;BME280;70449;52.486;13.386;2024-02-23T09:24:57;65098.22;;;-146.22;100.00
5356;BME280;70449;52.486;13.386;2024-02-23T09:27:24;65098.22;;;-146.22;100.00
5356;BME280;70449;52.486;13.386;2024-02-23T09:29:51;65098.22;;;-146.22;100.00
5356;BME280;70449;52.486;13.386;2024-02-23T09:32:18;65098.22;;;-146.22;100.00
5356;BME280;70449;52.486;13.386;2024-02-23T09:34:47;65098.22;;;-146.22;100.00
5356;BME280;70449;52.486;13.386;2024-02-23T09:37:14;65098.22;;;-146.22;100.00
5356;BME280;70449;52.486;13.386;2024-02-23T09:39:41;65098.22;;;-146.22;100.00
5356;BME280;70449;52.486;13.386;2024-02-23T09:42:10;65098.22;;;-146.22;100.00
5356;BME280;70449;52.486;13.386;2024-02-23T09:44:38;65098.22;;;-146.22;100.00
5356;BME280;70449;52.486;13.386;2024-02-23T09:47:06;65098.22;;;-146.22;100.00
5356;BME280;70449;52.486;13.386;2024-02-23T09:49:38;65098.22;;;-146.22;100.00
5356;BME280;70449;52.486;13.386;2024-02-23T09:52:10;65098.22;;;-146.22;100.00
5356;BME280;70449;52.486;13.386;2024-02-23T09:54:37;65098.22;;;-146.22;100.00
5356;BME280;70449;52.486;13.386;2024-02-23T09:57:08;65098.22;;;-146.22;100.00
5356;BME280;70449;52.486;13.386;2024-02-23T09:59:36;65098.22;;;-146.22;100.00
5356;BME280;70449;52.486;13.386;2024-02-23T10:02:08;65098.22;;;-146.22;100.00
5356;BME280;70449;52.486;13.386;2024-02-23T10:04:37;65098.22;;;-146.22;100.00
5356;BME280;70449;52.486;13.386;2024-02-23T10:07:07;65098.22;;;-146.22;100.00
5356;BME280;70449;52.486;13.386;2024-02-23T10:09:35;65098.22;;;-146.22;100.00
5356;BME280;70449;52.486;13.386;2024-02-23T10:12:03;65098.22;;;-146.22;100.00
5356;BME280;70449;52.486;13.386;2024-02-23T10:14:30;65098.22;;;-146.22;100.00
5356;BME280;70449;52.486;13.386;2024-02-23T10:16:57;65098.22;;;-146.22;100.00
5356;BME280;70449;52.486;13.386;2024-02-23T10:19:25;65098.22;;;-146.22;100.00
5356;BME280;70449;52.486;13.386;2024-02-23T10:21:55;65098.22;;;-146.22;100.00
5356;BME280;70449;52.486;13.386;2024-02-23T10:24:25;65098.22;;;-146.22;100.00
5356;BME280;70449;52.486;13.386;2024-02-23T10:26:52;65098.22;;;-146.22;100.00
5356;BME280;70449;52.486;13.386;2024-02-23T10:29:20;65098.22;;;-146.22;100.00
5356;BME280;70449;52.486;13.386;2024-02-23T10:31:57;99036.50;;;13.38;67.74
5356;BME280;70449;52.486;13.386;2024-02-23T10:34:25;99054.25;;;13.12;70.65
5356;BME280;70449;52.486;13.386;2024-02-23T10:36:54;99037.66;;;13.25;71.05
5356;BME280;70449;52.486;13.386;2024-02-23T10:39:24;99021.63;;;14.41;67.08
5356;BME280;70449;52.486;13.386;2024-02-23T10:41:57;99029.25;;;13.18;64.52
5356;BME280;70449;52.486;13.386;2024-02-23T10:44:28;99030.88;;;13.98;61.59
5356;BME280;70449;52.486;13.386;2024-02-23T10:46:59;99031.00;;;14.01;61.08
5356;BME280;70449;52.486;13.386;2024-02-23T10:49:28;99036.31;;;13.31;61.10
5356;BME280;70449;52.486;13.386;2024-02-23T10:51:57;99047.38;;;14.29;60.62
5356;BME280;70449;52.486;13.386;2024-02-23T10:54:24;99047.38;;;14.29;60.62
5356;BME280;70449;52.486;13.386;2024-02-23T10:56:53;99043.03;;;14.64;59.56
5356;BME280;70449;52.486;13.386;2024-02-23T10:59:21;99048.34;;;13.54;58.60
5356;BME280;70449;52.486;13.386;2024-02-23T11:01:51;99051.59;;;14.07;58.87
5356;BME280;70449;52.486;13.386;2024-02-23T11:04:21;99052.13;;;14.48;58.73
5356;BME280;70449;52.486;13.386;2024-02-23T11:06:50;99053.47;;;13.88;59.56
5356;BME280;70449;52.486;13.386;2024-02-23T11:09:21;99053.91;;;14.41;59.01
5356;BME280;70449;52.486;13.386;2024-02-23T11:11:56;99049.28;;;14.80;58.08
5356;BME280;70449;52.486;13.386;2024-02-23T11:14:30;99050.09;;;14.45;57.31
5356;BME280;70449;52.486;13.386;2024-02-23T11:16:58;99058.97;;;14.03;58.29
5356;BME280;70449;52.486;13.386;2024-02-23T11:19:34;99037.22;;;14.69;57.01
5356;BME280;70449;52.486;13.386;2024-02-23T11:22:03;99050.66;;;14.35;57.21
5356;BME280;70449;52.486;13.386;2024-02-23T11:24:31;99046.75;;;14.36;57.80
5356;BME280;70449;52.486;13.386;2024-02-23T11:26:59;99054.63;;;14.02;56.72
5356;BME280;70449;52.486;13.386;2024-02-23T11:29:34;99060.38;;;14.13;57.24
5356;BME280;70449;52.486;13.386;2024-02-23T11:32:02;99058.72;;;13.77;58.11
5356;BME280;70449;52.486;13.386;2024-02-23T11:34:30;99074.34;;;13.73;58.36
5356;BME280;70449;52.486;13.386;2024-02-23T11:37:09;99066.63;;;14.45;57.84
5356;BME280;70449;52.486;13.386;2024-02-23T11:39:38;99063.28;;;14.36;55.72
5356;BME280;70449;52.486;13.386;2024-02-23T11:42:06;99061.06;;;14.77;56.35
5356;BME280;70449;52.486;13.386;2024-02-23T11:44:34;99054.72;;;13.43;57.49
5356;BME280;70449;52.486;13.386;2024-02-23T11:47:03;99062.47;;;13.84;57.54
5356;BME280;70449;52.486;13.386;2024-02-23T11:49:30;99056.53;;;14.18;56.66
5356;BME280;70449;52.486;13.386;2024-02-23T11:52:00;99065.47;;;13.95;57.31
5356;BME280;70449;52.486;13.386;2024-02-23T11:54:27;99058.25;;;14.58;56.00
5356;BME280;70449;52.486;13.386;2024-02-23T11:56:55;99064.88;;;14.37;55.76
5356;BME280;70449;52.486;13.386;2024-02-23T11:59:23;99058.56;;;14.72;55.69
5356;BME280;70449;52.486;13.386;2024-02-23T12:01:52;99061.34;;;14.72;54.47
5356;BME280;70449;52.486;13.386;2024-02-23T12:04:19;99069.09;;;14.50;55.59
5356;BME280;70449;52.486;13.386;2024-02-23T12:06:46;99078.94;;;14.32;56.07
5356;BME280;70449;52.486;13.386;2024-02-23T12:09:18;99083.78;;;14.39;56.58
5356;BME280;70449;52.486;13.386;2024-02-23T12:11:48;99086.44;;;14.16;56.46
5356;BME280;70449;52.486;13.386;2024-02-23T12:14:15;99076.88;;;14.29;56.27
5356;BME280;70449;52.486;13.386;2024-02-23T12:16:44;99077.31;;;15.02;55.30
5356;BME280;70449;52.486;13.386;2024-02-23T12:19:15;99087.13;;;14.13;56.46
5356;BME280;70449;52.486;13.386;2024-02-23T12:21:45;99090.34;;;13.51;56.80
5356;BME280;70449;52.486;13.386;2024-02-23T12:24:14;99095.84;;;13.83;56.21
5356;BME280;70449;52.486;13.386;2024-02-23T12:26:41;99094.69;;;13.68;57.30
5356;BME280;70449;52.486;13.386;2024-02-23T12:29:10;99084.63;;;14.39;55.24
5356;BME280;70449;52.486;13.386;2024-02-23T12:31:40;99080.78;;;14.99;54.63
5356;BME280;70449;52.486;13.386;2024-02-23T12:34:11;99092.19;;;13.95;56.38
5356;BME280;70449;52.486;13.386;2024-02-23T12:36:39;99081.84;;;14.55;55.81
5356;BME280;70449;52.486;13.386;2024-02-23T12:39:07;99096.38;;;14.36;56.32
5356;BME280;70449;52.486;13.386;2024-02-23T12:41:35;99108.94;;;14.69;54.92